»·PEaware :: N990CP KSAN-KSAN

N990CP :: KSAN-KSAN

FLIGHT INFORMATION

Flight Status: Arrived
Operator: Privately registered:
United States
More flights under this callsign
Pilot: Carlos A. (16805)
Aircraft: CESSNA 172 SKYHAWK
(C172)
More flights by this aircraft type
Origin: KSAN San Diego Intl-Lindbergh
United States
Destination: KSAN San Diego Intl-Lindbergh
United States
More flights between these airports :: More routes between these airports
Route: +
File this flight plan on PilotEdge
Remarks:
Altitude:
(Current/Filed)
0ft
Speed:
(Current/Filed)
0kts
Departed: 19-Nov-17 08:35 PM
Arrived: 19-Nov-17 09:41 PM
Distance/Time
Traveled:
0nm/1:06
Distance/Time
To Go:
Arrived

Flight Plot

Page will automatically refresh every two minutes.


Map Options




Map Legend


Flown Route
Filed Route
Departure Airport
Arrival Airport
Navaid (VOR, NDB)
Fix

Horizontal Profiles

Position Reports

Time Latitude Longitude Heading Altitude Ground
Speed
19-Nov-17 20:14 32.732993 -117.181404 195 18ft 0kts
19-Nov-17 20:15 32.732989 -117.181405 195 18ft 0kts
19-Nov-17 20:16 32.732986 -117.181406 195 18ft 0kts
19-Nov-17 20:17 32.732982 -117.181407 195 18ft 0kts
19-Nov-17 20:18 32.732920 -117.181427 193 18ft 0kts
19-Nov-17 20:19 32.732916 -117.181428 193 18ft 0kts
19-Nov-17 20:20 32.732895 -117.181434 194 18ft 0kts
19-Nov-17 20:21 32.732884 -117.181438 194 18ft 0kts
19-Nov-17 20:22 32.732881 -117.181439 194 18ft 0kts
19-Nov-17 20:23 32.732878 -117.181440 194 18ft 0kts
19-Nov-17 20:24 32.732875 -117.181441 194 18ft 0kts
19-Nov-17 20:25 32.732862 -117.181445 195 18ft 0kts
19-Nov-17 20:26 32.732859 -117.181446 195 18ft 0kts
19-Nov-17 20:27 32.732856 -117.181447 195 18ft 0kts
19-Nov-17 20:28 32.732852 -117.181448 195 18ft 0kts
19-Nov-17 20:29 32.732772 -117.181476 196 18ft 0kts
19-Nov-17 20:30 32.732865 -117.183036 284 18ft 13kts
19-Nov-17 20:31 32.734194 -117.188615 285 18ft 17kts
19-Nov-17 20:32 32.734309 -117.190100 187 18ft 0kts
19-Nov-17 20:33 32.734306 -117.190100 187 18ft 0kts
19-Nov-17 20:34 32.734128 -117.188385 105 18ft 14kts
19-Nov-17 20:35 32.732661 -117.182194 106 18ft 23kts
19-Nov-17 20:36 32.731222 -117.176186 105 18ft 8kts
19-Nov-17 20:37 32.730712 -117.175125 184 18ft 0kts
19-Nov-17 20:38 32.730711 -117.175125 184 18ft 0kts
19-Nov-17 20:39 32.730589 -117.175141 188 18ft 3kts
19-Nov-17 20:40 32.731578 -117.181965 288 141ft 61kts
19-Nov-17 20:41 32.737153 -117.205801 292 1014ft 71kts
19-Nov-17 20:42 32.753672 -117.223484 327 1692ft 89kts
19-Nov-17 20:43 32.772521 -117.236612 322 1872ft 99kts
19-Nov-17 20:44 32.791433 -117.250895 330 2553ft 83kts
19-Nov-17 20:45 32.809370 -117.264893 329 3462ft 79kts
19-Nov-17 20:46 32.828315 -117.280112 324 4258ft 83kts
19-Nov-17 20:47 32.845295 -117.273279 106 4847ft 95kts
19-Nov-17 20:48 32.835087 -117.243794 104 5506ft 93kts
19-Nov-17 20:49 32.824633 -117.212267 105 5571ft 106kts
19-Nov-17 20:50 32.816250 -117.177550 106 5512ft 117kts
19-Nov-17 20:51 32.800091 -117.146540 144 5113ft 135kts
19-Nov-17 20:52 32.785998 -117.112678 106 4882ft 115kts
19-Nov-17 20:53 32.776177 -117.083148 99 4990ft 116kts
19-Nov-17 20:54 32.761774 -117.047841 112 3711ft 119kts
19-Nov-17 20:55 32.746803 -117.017240 127 3739ft 103kts
19-Nov-17 20:56 32.722364 -117.000590 181 3734ft 105kts
19-Nov-17 20:57 32.696541 -117.009520 206 3845ft 106kts
19-Nov-17 20:58 32.697950 -117.039036 286 2835ft 99kts
19-Nov-17 20:59 32.705742 -117.069127 285 2296ft 96kts
19-Nov-17 21:00 32.710802 -117.099046 291 1814ft 89kts
19-Nov-17 21:01 32.719964 -117.126748 285 1335ft 91kts
19-Nov-17 21:02 32.725156 -117.155351 283 802ft 87kts
19-Nov-17 21:03 32.731015 -117.179266 290 79ft 58kts
19-Nov-17 21:04 32.735075 -117.196381 290 388ft 66kts
19-Nov-17 21:05 32.740170 -117.218047 287 1266ft 68kts
19-Nov-17 21:06 32.750128 -117.240026 295 1865ft 77kts
19-Nov-17 21:07 32.754055 -117.264581 272 2593ft 74kts
19-Nov-17 21:08 32.760797 -117.289396 306 3183ft 72kts
19-Nov-17 21:09 32.769296 -117.312078 318 3728ft 83kts
19-Nov-17 21:10 32.779927 -117.335956 280 3770ft 80kts
19-Nov-17 21:11 32.784128 -117.367202 266 3223ft 108kts
19-Nov-17 21:12 32.788525 -117.400342 265 2837ft 103kts
19-Nov-17 21:13 32.785165 -117.427945 253 2882ft 81kts
19-Nov-17 21:14 32.788281 -117.455870 272 2960ft 90kts
19-Nov-17 21:15 32.790380 -117.483242 274 3333ft 79kts
19-Nov-17 21:16 32.777208 -117.496660 127 3606ft 92kts
19-Nov-17 21:17 32.782539 -117.468923 86 3696ft 99kts
19-Nov-17 21:18 32.776021 -117.442380 148 4040ft 92kts
19-Nov-17 21:19 32.760887 -117.457249 278 4067ft 86kts
19-Nov-17 21:20 32.763711 -117.486193 267 4071ft 90kts
19-Nov-17 21:21 32.777478 -117.503692 27 3981ft 89kts
19-Nov-17 21:22 32.780131 -117.474876 87 4046ft 87kts
19-Nov-17 21:23 32.776357 -117.448679 156 4088ft 91kts
19-Nov-17 21:24 32.765320 -117.469464 267 3880ft 94kts
19-Nov-17 21:25 32.760447 -117.498254 248 3886ft 89kts
19-Nov-17 21:26 32.773704 -117.508441 46 3904ft 95kts
19-Nov-17 21:27 32.776049 -117.478741 86 4010ft 94kts
19-Nov-17 21:28 32.772686 -117.451689 166 4208ft 83kts
19-Nov-17 21:29 32.762516 -117.475398 265 4081ft 89kts
19-Nov-17 21:30 32.759335 -117.504849 261 4003ft 90kts
19-Nov-17 21:31 32.752805 -117.533296 252 3957ft 89kts
19-Nov-17 21:32 32.769369 -117.535187 60 3900ft 85kts
19-Nov-17 21:33 32.776835 -117.507143 85 3816ft 93kts
19-Nov-17 21:34 32.771454 -117.477996 100 3502ft 112kts
19-Nov-17 21:35 32.763349 -117.447898 114 3515ft 94kts
19-Nov-17 21:36 32.762497 -117.419950 49 3088ft 111kts
19-Nov-17 21:37 32.780251 -117.399053 42 3176ft 89kts
19-Nov-17 21:38 32.775719 -117.370610 107 2897ft 93kts
19-Nov-17 21:39 32.770181 -117.341757 110 2787ft 86kts
19-Nov-17 21:40 32.761761 -117.314228 100 2385ft 86kts
19-Nov-17 21:41 32.757610 -117.286195 106 1890ft 79kts
19-Nov-17 21:42 32.750398 -117.262859 96 1190ft 71kts
19-Nov-17 21:43 32.746301 -117.240277 104 718ft 67kts
19-Nov-17 21:44 32.741336 -117.219120 99 453ft 67kts
19-Nov-17 21:45 32.735931 -117.199503 104 19ft 43kts
19-Nov-17 21:46 32.734074 -117.191782 103 18ft 28kts
19-Nov-17 21:47 32.734330 -117.189251 107 18ft 12kts
19-Nov-17 21:48 32.733033 -117.183759 103 18ft 3kts
19-Nov-17 21:49 32.733323 -117.183019 326 18ft 6kts

Navigation Log

Ident Type
1. KSAN Airport
2. KSAN Airport